Terminal Aerodrome Forecast
Issued by NWS

Home | Current Version | Previous Version | Text Only | Print | Product List | Glossary On
Versions: 1 2 3 4 5 6 7 8 9 10 11 12 13 14 15 16 17 18
000
FTAK31 PAFA 180540
TAFASC
TAF
PASC 180540Z 1806/1906 VRB05KT P6SM VCSH OVC008
     FM181100 26004KT 1SM BR OVC004
     FM181800 26004KT 4SM BR OVC008
     FM182100 33007KT P6SM OVC015
     FM190200 04006KT 5SM BR OVC007=

USA.gov is the U.S. government's official web portal to all federal, state and local government web resources and services.